Airfield :
LOGIN :

Register | Disclaimer

   EN    FR    IT 

 










Legend :    VFR   Marginal VFR   IFR   Intensive IFR   Very Intensive IFR
Visi :
Ceiling :
>= 8 km
>= 3000ft
5 to 8 km
1000 to 3000 ft
1500m to 5 km
500 to 1000 ft
800 to 1500m
200 to 500 ft
< 800m
< 200 ft
Symbols :   Thunderstorms  Fog  Heavy snow  Heavy precipitations  Wind > 20 kt
SIGMETs :     Misc.  Thunderstorms  Icing  Turbulence  Mountain Waves  Volcanic Ashes







- Airport Elevation : 38 ft
- IATA code : TRE
- Download approach charts


EGPU - Tiree

CURRENT METAR :
  • 240820Z 29010KT 9999 FEW019 BKN025 10/06 Q1018

EXPIRED METARs :
  • 240750Z 30011KT 9999 FEW019 BKN027 10/05 Q1018
  • 240720Z AUTO 30010KT 9999 OVC024/// 10/05 Q1017
  • 240650Z AUTO 31012KT 220V280 9999 OVC023/// 10/05 Q1017
  • 240620Z AUTO 30010KT 9999 OVC023/// 10/05 Q1017
  • 240550Z AUTO 30011KT 9999 OVC024/// 09/05 Q1017

TAF TAF EGPU
Valid from the 24 at 09:00 until the 24 at 18:00 UTC


240801Z 2409/2418 30010KT 9999 BKN020
No reported NOTAMs for that airfield.



MET'MAP, your aeronautical weather chart ! - Copyright ORBIFLY December 2007 - Disclaimer

ORBIFLY MET'MAP TEAM :

Programming & Development : Alexandra Zaïnal
Concept & Development : Baudouin d'Aumeries
Co-Development & Prog : Marc-Olivier Méhu
Technical & hardware support : Manuel Goepfert

Contact : metmap@orbifly.com




SOURCES & CREDITS :

   NOAA